createdAt,value
2018-06-19T00:01:20.693Z,20.38
2018-06-19T00:03:49.741Z,20.32
2018-06-19T00:06:19.004Z,20.40
2018-06-19T00:08:47.703Z,20.36
2018-06-19T00:11:16.903Z,20.33
2018-06-19T00:13:46.324Z,20.38
2018-06-19T00:16:16.148Z,20.45
2018-06-19T00:18:49.942Z,20.44
2018-06-19T00:21:26.508Z,20.38
2018-06-19T00:23:55.165Z,20.31
2018-06-19T00:26:24.430Z,20.31
2018-06-19T00:28:54.282Z,20.33
2018-06-19T00:31:23.365Z,20.23
2018-06-19T00:33:52.009Z,20.26
2018-06-19T00:36:23.537Z,20.32
2018-06-19T00:38:53.771Z,20.33
2018-06-19T00:41:23.033Z,20.39
2018-06-19T00:43:52.558Z,20.39
2018-06-19T00:46:23.878Z,20.41
2018-06-19T00:48:52.490Z,20.46
2018-06-19T00:51:21.396Z,20.49
2018-06-19T00:53:50.293Z,20.51
2018-06-19T00:56:30.785Z,20.54
2018-06-19T00:58:59.681Z,20.58
2018-06-19T01:01:29.259Z,20.58
2018-06-19T01:03:58.851Z,20.55
2018-06-19T01:06:28.675Z,20.59
2018-06-19T01:08:57.303Z,20.60
2018-06-19T01:11:25.922Z,20.63
2018-06-19T01:13:54.870Z,20.54
2018-06-19T01:16:23.864Z,20.51
2018-06-19T01:18:52.481Z,20.46
2018-06-19T01:21:21.779Z,20.47
2018-06-19T01:23:50.985Z,20.53
2018-06-19T01:26:20.930Z,20.48
2018-06-19T01:28:50.904Z,20.39
2018-06-19T01:31:19.900Z,20.38
2018-06-19T01:33:48.507Z,20.35
2018-06-19T01:36:17.529Z,20.34
2018-06-19T01:38:46.413Z,20.39
2018-06-19T01:41:14.980Z,20.25
2018-06-19T01:43:43.897Z,20.22
2018-06-19T01:46:12.854Z,20.21
2018-06-19T01:48:41.477Z,20.13
2018-06-19T01:51:10.673Z,20.21
2018-06-19T01:53:39.666Z,20.16
2018-06-19T01:56:08.309Z,20.11
2018-06-19T01:58:37.244Z,20.11
2018-06-19T02:01:07.857Z,20.09
2018-06-19T02:03:36.548Z,20.02
2018-06-19T02:06:07.192Z,19.97
2018-06-19T02:08:36.197Z,19.92
2018-06-19T02:11:05.118Z,19.94
2018-06-19T02:13:35.521Z,19.96
2018-06-19T02:16:04.861Z,19.97
2018-06-19T02:18:35.447Z,19.97
2018-06-19T02:21:04.432Z,19.88
2018-06-19T02:23:33.457Z,19.89
2018-06-19T02:26:03.682Z,19.87
2018-06-19T02:28:34.678Z,19.86
2018-06-19T02:31:04.940Z,19.77
2018-06-19T02:33:35.154Z,19.72
2018-06-19T02:36:06.187Z,19.67
2018-06-19T02:38:34.869Z,19.61
2018-06-19T02:41:05.522Z,19.62
2018-06-19T02:43:36.118Z,19.69
2018-06-19T02:46:05.082Z,19.73
2018-06-19T02:48:34.112Z,19.76
2018-06-19T02:51:02.761Z,19.78
2018-06-19T02:53:31.662Z,19.81
2018-06-19T02:56:00.533Z,19.86
2018-06-19T02:58:29.224Z,19.87
2018-06-19T03:00:58.158Z,19.84
2018-06-19T03:03:28.615Z,19.86
2018-06-19T03:05:58.029Z,19.85
2018-06-19T03:08:27.160Z,19.81
2018-06-19T03:10:58.197Z,19.84
2018-06-19T03:13:29.042Z,19.95
2018-06-19T03:15:58.483Z,19.72
2018-06-19T03:18:27.822Z,19.57
2018-06-19T03:20:56.794Z,19.52
2018-06-19T03:23:25.988Z,19.48
2018-06-19T03:25:54.605Z,19.39
2018-06-19T03:28:23.298Z,19.47
2018-06-19T03:30:52.036Z,19.58
2018-06-19T03:33:21.611Z,19.68
2018-06-19T03:35:50.638Z,19.84
2018-06-19T03:38:19.547Z,19.92
2018-06-19T03:40:48.161Z,19.99
2018-06-19T03:43:17.155Z,20.00
2018-06-19T03:45:45.865Z,20.03
2018-06-19T03:48:14.801Z,20.05
2018-06-19T03:50:43.487Z,20.00
2018-06-19T03:53:12.386Z,20.02
2018-06-19T03:55:41.268Z,20.04
2018-06-19T03:58:09.899Z,19.91
2018-06-19T04:00:38.592Z,19.85
2018-06-19T04:03:07.898Z,19.80
2018-06-19T04:05:36.525Z,19.76
2018-06-19T04:08:05.223Z,19.78
2018-06-19T04:10:34.043Z,19.56
2018-06-19T04:13:03.096Z,19.50
2018-06-19T04:15:32.107Z,19.51
2018-06-19T04:18:00.723Z,19.57
2018-06-19T04:20:29.789Z,19.59
2018-06-19T04:22:59.236Z,19.56
2018-06-19T04:25:27.894Z,19.51
2018-06-19T04:27:56.503Z,19.53
2018-06-19T04:30:25.661Z,19.37
2018-06-19T04:32:54.582Z,19.24
2018-06-19T04:35:25.110Z,19.25
2018-06-19T04:37:54.180Z,19.25
2018-06-19T04:40:23.411Z,19.18
2018-06-19T04:42:52.082Z,19.13
2018-06-19T04:45:20.708Z,19.15
2018-06-19T04:47:51.845Z,19.10
2018-06-19T04:50:21.691Z,19.11
2018-06-19T04:52:51.294Z,19.18
2018-06-19T04:55:19.946Z,19.11
2018-06-19T04:57:48.876Z,19.05
2018-06-19T05:00:17.867Z,19.11
2018-06-19T05:02:46.785Z,19.08
2018-06-19T05:05:15.445Z,19.09
2018-06-19T05:07:44.168Z,19.10
2018-06-19T05:10:12.871Z,19.26
2018-06-19T05:12:41.869Z,19.18
2018-06-19T05:15:12.367Z,19.32
2018-06-19T05:17:41.789Z,19.32
2018-06-19T05:20:11.070Z,19.44
2018-06-19T05:22:39.694Z,19.50
2018-06-19T05:25:08.747Z,19.57
2018-06-19T05:27:37.954Z,19.55
2018-06-19T05:30:07.036Z,19.49
2018-06-19T05:32:36.003Z,19.51
2018-06-19T05:35:04.789Z,19.55
2018-06-19T05:37:33.715Z,19.60
2018-06-19T05:40:02.408Z,19.64
2018-06-19T05:42:31.412Z,19.62
2018-06-19T05:45:00.309Z,19.46
2018-06-19T05:47:29.013Z,19.37
2018-06-19T05:49:57.886Z,19.43
2018-06-19T05:52:27.098Z,19.43
2018-06-19T05:54:56.279Z,19.46
2018-06-19T05:57:25.189Z,19.62
2018-06-19T05:59:53.803Z,19.72
2018-06-19T06:02:22.801Z,19.86
2018-06-19T06:04:51.712Z,20.03
2018-06-19T06:07:21.307Z,20.18
2018-06-19T06:09:50.368Z,20.14
2018-06-19T06:12:19.304Z,20.00
2018-06-19T06:14:47.922Z,19.89
2018-06-19T06:17:16.595Z,19.73
2018-06-19T06:19:47.051Z,19.76
2018-06-19T06:22:16.875Z,19.73
2018-06-19T06:24:46.204Z,19.79
2018-06-19T06:27:15.633Z,19.99
2018-06-19T06:29:44.254Z,20.24
2018-06-19T06:32:12.869Z,20.42
2018-06-19T06:34:42.072Z,20.49
2018-06-19T06:37:10.859Z,20.63
2018-06-19T06:39:39.472Z,20.51
2018-06-19T06:42:08.169Z,20.43
2018-06-19T06:44:36.864Z,20.40
2018-06-19T06:47:05.783Z,20.44
2018-06-19T06:49:34.552Z,20.58
2018-06-19T06:52:03.592Z,20.74
2018-06-19T06:54:32.278Z,20.93
2018-06-19T06:57:02.140Z,20.97
2018-06-19T06:59:32.455Z,20.96
2018-06-19T07:02:01.087Z,20.85
2018-06-19T07:04:31.607Z,20.90
2018-06-19T07:07:00.555Z,20.83
2018-06-19T07:09:29.165Z,21.14
2018-06-19T07:11:57.845Z,21.47
2018-06-19T07:14:27.228Z,21.76
2018-06-19T07:16:55.815Z,22.12
2018-06-19T07:19:24.529Z,22.60
2018-06-19T07:21:53.666Z,22.77
2018-06-19T07:24:22.249Z,22.73
2018-06-19T07:26:51.191Z,22.80
2018-06-19T07:29:19.871Z,22.59
2018-06-19T07:31:48.856Z,22.19
2018-06-19T07:34:17.444Z,22.67
2018-06-19T07:36:46.125Z,22.91
2018-06-19T07:39:15.274Z,22.26
2018-06-19T07:41:44.319Z,22.56
2018-06-19T07:44:13.464Z,22.61
2018-06-19T07:46:42.094Z,22.56
2018-06-19T07:49:11.051Z,22.96
2018-06-19T07:51:39.924Z,23.29
2018-06-19T07:54:08.613Z,23.66
2018-06-19T07:56:37.209Z,24.10
2018-06-19T07:59:06.137Z,24.29
2018-06-19T08:01:35.102Z,24.51
2018-06-19T08:04:03.994Z,24.56
2018-06-19T08:06:32.980Z,24.48
2018-06-19T08:09:01.794Z,24.52
2018-06-19T08:11:30.973Z,24.63
2018-06-19T08:13:59.670Z,25.34
2018-06-19T08:16:28.361Z,25.77
2018-06-19T08:18:56.967Z,25.17
2018-06-19T08:21:25.934Z,25.06
2018-06-19T08:23:54.559Z,24.28
2018-06-19T08:26:23.159Z,24.34
2018-06-19T08:28:51.824Z,25.03
2018-06-19T08:31:20.774Z,25.49
2018-06-19T08:33:50.007Z,25.77
2018-06-19T08:36:18.933Z,25.33
2018-06-19T08:38:47.590Z,24.88
2018-06-19T08:41:16.200Z,25.38
2018-06-19T08:43:44.786Z,25.36
2018-06-19T08:46:13.559Z,25.75
2018-06-19T08:48:42.349Z,25.42
2018-06-19T08:51:11.494Z,25.38
2018-06-19T08:53:40.652Z,25.11
2018-06-19T08:56:09.714Z,24.96
2018-06-19T08:58:38.333Z,24.92
2018-06-19T09:01:07.278Z,24.50
2018-06-19T09:03:35.941Z,25.12
2018-06-19T09:06:04.649Z,25.31
2018-06-19T09:08:33.548Z,25.09
2018-06-19T09:11:02.438Z,25.41
2018-06-19T09:13:31.133Z,25.13
2018-06-19T09:16:00.316Z,25.41
2018-06-19T09:18:29.021Z,25.09
2018-06-19T09:20:57.653Z,25.18
2018-06-19T09:23:26.540Z,25.31
2018-06-19T09:25:55.221Z,25.84
2018-06-19T09:28:24.206Z,26.08
2018-06-19T09:30:52.867Z,26.20
2018-06-19T09:33:21.528Z,25.66
2018-06-19T09:35:50.453Z,25.72
2018-06-19T09:38:19.126Z,25.06
2018-06-19T09:40:47.898Z,24.34
2018-06-19T09:43:17.429Z,24.34
2018-06-19T09:45:46.192Z,24.44
2018-06-19T09:48:15.690Z,24.57
2018-06-19T09:50:46.644Z,24.58
2018-06-19T09:53:15.408Z,24.63
2018-06-19T09:55:44.087Z,24.50
2018-06-19T09:58:12.765Z,24.39
2018-06-19T10:00:42.322Z,24.52
2018-06-19T10:03:11.012Z,24.28
2018-06-19T10:05:40.813Z,24.45
2018-06-19T10:08:11.560Z,24.11
2018-06-19T10:10:40.555Z,23.97
2018-06-19T10:13:09.174Z,23.86
2018-06-19T10:15:37.831Z,24.17
2018-06-19T10:18:06.512Z,24.01
2018-06-19T10:20:35.173Z,23.60
2018-06-19T10:23:04.225Z,23.66
2018-06-19T10:25:32.850Z,23.82
2018-06-19T10:28:02.079Z,23.67
2018-06-19T10:30:31.015Z,23.51
2018-06-19T10:32:59.962Z,23.51
2018-06-19T10:35:28.925Z,23.53
2018-06-19T10:37:57.591Z,23.64
2018-06-19T10:40:26.591Z,23.77
2018-06-19T10:42:55.508Z,23.98
2018-06-19T10:45:24.195Z,24.19
2018-06-19T10:47:52.851Z,24.43
2018-06-19T10:50:21.528Z,24.44
2018-06-19T10:52:50.885Z,24.08
2018-06-19T10:55:19.786Z,24.23
2018-06-19T10:57:48.662Z,24.11
2018-06-19T11:00:17.375Z,24.41
2018-06-19T11:02:46.440Z,24.76
2018-06-19T11:05:15.357Z,24.95
2018-06-19T11:07:43.976Z,24.95
2018-06-19T11:10:12.602Z,24.90
2018-06-19T11:12:41.220Z,25.03
2018-06-19T11:15:09.832Z,25.18
2018-06-19T11:17:38.778Z,25.35
2018-06-19T11:20:07.422Z,25.45
2018-06-19T11:22:36.401Z,25.17
2018-06-19T11:25:05.363Z,24.67
2018-06-19T11:27:34.252Z,24.48
2018-06-19T11:30:02.868Z,24.37
2018-06-19T11:32:32.478Z,24.32
2018-06-19T11:35:01.399Z,24.29
2018-06-19T11:37:31.661Z,24.11
2018-06-19T11:40:00.555Z,24.17
2018-06-19T11:42:29.164Z,24.02
2018-06-19T11:44:57.835Z,24.13
2018-06-19T11:47:27.127Z,24.26
2018-06-19T11:49:55.763Z,24.41
2018-06-19T11:52:24.663Z,24.58
2018-06-19T11:54:54.438Z,24.36
2018-06-19T11:57:23.132Z,24.18
2018-06-19T11:59:51.846Z,24.32
2018-06-19T12:02:20.889Z,24.90
2018-06-19T12:04:49.544Z,25.56
2018-06-19T12:07:18.592Z,25.58
2018-06-19T12:09:47.270Z,25.55
2018-06-19T12:12:15.965Z,25.71
2018-06-19T12:14:45.850Z,26.27
2018-06-19T12:17:15.903Z,27.01
2018-06-19T12:19:45.114Z,27.37
2018-06-19T12:22:13.764Z,27.73
2018-06-19T12:24:42.496Z,28.28
2018-06-19T12:27:11.149Z,27.94
2018-06-19T12:29:40.321Z,28.32
2018-06-19T12:32:09.274Z,28.53
2018-06-19T12:34:38.317Z,28.08
2018-06-19T12:37:07.299Z,28.51
2018-06-19T12:39:35.950Z,29.01
2018-06-19T12:42:04.717Z,28.79
2018-06-19T12:44:33.429Z,27.03
2018-06-19T12:47:02.515Z,26.31
2018-06-19T12:49:42.233Z,26.89
2018-06-19T12:52:22.042Z,28.44
2018-06-19T12:55:31.357Z,30.56
2018-06-19T12:58:00.405Z,29.86
2018-06-19T13:00:29.065Z,27.73
2018-06-19T13:03:08.799Z,29.28
2018-06-19T13:06:40.899Z,32.79
2018-06-19T13:09:09.878Z,31.70
2018-06-19T13:11:38.693Z,30.81
2018-06-19T13:14:18.661Z,30.06
2018-06-19T13:16:58.318Z,28.26
2018-06-19T13:19:38.241Z,28.09
2018-06-19T13:22:06.927Z,29.59
2018-06-19T13:24:35.666Z,29.96
2018-06-19T13:27:04.616Z,31.09
2018-06-19T13:29:49.179Z,34.12
2018-06-19T13:32:17.895Z,32.28
2018-06-19T13:34:46.617Z,29.62
2018-06-19T13:37:15.502Z,28.30
2018-06-19T13:39:44.764Z,27.90
2018-06-19T13:43:28.237Z,27.19
2018-06-19T13:45:56.825Z,26.21
2018-06-19T13:48:25.535Z,25.96
2018-06-19T13:50:54.197Z,25.68
2018-06-19T13:53:22.907Z,25.35
2018-06-19T13:56:11.564Z,25.34
2018-06-19T13:58:40.555Z,24.97
2018-06-19T14:01:09.765Z,25.06
2018-06-19T14:03:38.677Z,25.10
2018-06-19T14:06:07.451Z,24.90
2018-06-19T14:08:46.513Z,24.91
2018-06-19T14:11:26.257Z,24.89
2018-06-19T14:13:55.007Z,24.83
2018-06-19T14:16:23.811Z,24.90
2018-06-19T14:18:52.523Z,24.91
2018-06-19T14:21:21.194Z,24.79
2018-06-19T14:23:50.049Z,24.70
2018-06-19T14:26:18.725Z,24.68
2018-06-19T14:28:47.637Z,24.70
2018-06-19T14:31:16.213Z,24.76
2018-06-19T14:33:45.313Z,24.78
2018-06-19T14:36:13.913Z,24.75
2018-06-19T14:38:42.596Z,24.62
2018-06-19T14:41:11.204Z,24.54
2018-06-19T14:43:40.267Z,24.34
2018-06-19T14:46:09.203Z,24.43
2018-06-19T14:48:37.915Z,24.46
2018-06-19T14:51:06.569Z,24.52
2018-06-19T14:53:35.193Z,24.58
2018-06-19T14:56:03.881Z,24.61
2018-06-19T14:58:32.546Z,24.69
2018-06-19T15:01:01.605Z,24.74
2018-06-19T15:03:30.230Z,24.68
2018-06-19T15:05:59.179Z,24.71
2018-06-19T15:08:28.099Z,24.76
2018-06-19T15:10:57.299Z,24.81
2018-06-19T15:13:26.499Z,24.79
2018-06-19T15:15:55.232Z,24.81
2018-06-19T15:18:23.960Z,24.80
2018-06-19T15:20:52.569Z,24.66
2018-06-19T15:23:21.255Z,24.54
2018-06-19T15:25:50.298Z,24.56
2018-06-19T15:28:18.951Z,24.48
2018-06-19T15:30:47.946Z,24.45
2018-06-19T15:33:16.987Z,24.51
2018-06-19T15:35:45.670Z,24.45
2018-06-19T15:38:14.340Z,24.42
2018-06-19T15:40:44.597Z,24.42
2018-06-19T15:43:17.943Z,24.22
2018-06-19T15:45:49.230Z,24.23
2018-06-19T15:48:20.351Z,24.39
2018-06-19T15:50:51.009Z,24.43
2018-06-19T15:56:02.891Z,24.69
2018-06-19T15:58:31.971Z,24.75
2018-06-19T16:01:00.738Z,24.71
2018-06-19T16:03:33.565Z,24.85
2018-06-19T16:06:07.353Z,24.92
2018-06-19T16:08:36.036Z,24.92
2018-06-19T16:11:05.643Z,24.94
2018-06-19T16:13:35.026Z,24.96
2018-06-19T16:16:03.745Z,25.05
2018-06-19T16:18:32.799Z,25.08
2018-06-19T16:21:01.842Z,25.10
2018-06-19T16:23:30.587Z,25.09
2018-06-19T16:25:59.615Z,25.17
2018-06-19T16:28:29.010Z,25.19
2018-06-19T16:30:57.877Z,25.16
2018-06-19T16:33:26.696Z,25.07
2018-06-19T16:35:55.427Z,25.04
2018-06-19T16:38:24.136Z,25.05
2018-06-19T16:40:53.140Z,25.03
2018-06-19T16:43:22.181Z,25.01
2018-06-19T16:45:51.378Z,24.93
2018-06-19T16:48:20.373Z,24.81
2018-06-19T16:50:49.380Z,24.52
2018-06-19T16:53:18.314Z,24.46
2018-06-19T16:55:47.359Z,24.46
2018-06-19T16:58:16.077Z,24.36
2018-06-19T17:00:44.949Z,24.22
2018-06-19T17:03:13.562Z,23.99
2018-06-19T17:05:42.226Z,24.09
2018-06-19T17:08:11.267Z,24.19
2018-06-19T17:10:40.313Z,24.14
2018-06-19T17:13:09.271Z,24.17
2018-06-19T17:15:37.949Z,24.23
2018-06-19T17:18:06.841Z,24.23
2018-06-19T17:20:35.547Z,24.27
2018-06-19T17:23:04.260Z,24.31
2018-06-19T17:25:33.294Z,24.22
2018-06-19T17:28:02.877Z,24.24
2018-06-19T17:30:31.561Z,24.29
2018-06-19T17:33:00.283Z,24.26
2018-06-19T17:35:29.199Z,24.24
2018-06-19T17:37:57.880Z,24.12
2018-06-19T17:40:26.859Z,24.05
2018-06-19T17:42:55.541Z,23.93
2018-06-19T17:45:24.634Z,23.79
2018-06-19T17:47:53.959Z,23.77
2018-06-19T17:50:27.639Z,23.69
2018-06-19T17:52:56.273Z,23.62
2018-06-19T17:55:25.074Z,23.62
2018-06-19T17:57:53.802Z,23.67
2018-06-19T18:00:22.613Z,23.69
2018-06-19T18:02:51.602Z,23.70
2018-06-19T18:05:23.494Z,23.71
2018-06-19T18:07:52.754Z,23.56
2018-06-19T18:10:22.493Z,23.57
2018-06-19T18:12:55.934Z,23.46
2018-06-19T18:15:24.997Z,23.46
2018-06-19T18:17:56.710Z,23.42
2018-06-19T18:20:29.627Z,23.41
2018-06-19T18:23:01.009Z,23.42
2018-06-19T18:25:31.323Z,23.35
2018-06-19T18:28:00.196Z,23.32
2018-06-19T18:30:31.636Z,23.38
2018-06-19T18:33:00.474Z,23.34
2018-06-19T18:35:29.331Z,23.34
2018-06-19T18:37:59.109Z,23.30
2018-06-19T18:40:34.104Z,23.31
2018-06-19T18:43:04.151Z,23.28
2018-06-19T18:45:33.282Z,23.19
2018-06-19T18:48:02.182Z,23.15
2018-06-19T18:50:33.455Z,23.15
2018-06-19T18:53:02.176Z,23.16
2018-06-19T18:55:33.160Z,23.19
2018-06-19T18:58:02.183Z,23.18
2018-06-19T19:00:32.685Z,23.15
2018-06-19T19:03:01.651Z,23.13
2018-06-19T19:05:33.622Z,23.07
2018-06-19T19:08:04.454Z,23.05
2018-06-19T19:10:40.146Z,22.83
2018-06-19T19:13:11.109Z,22.89
2018-06-19T19:15:45.150Z,22.91
2018-06-19T19:18:19.954Z,22.82
2018-06-19T19:20:51.673Z,22.78
2018-06-19T19:23:21.409Z,22.72
2018-06-19T19:25:52.997Z,22.68
2018-06-19T19:28:29.654Z,22.67
2018-06-19T19:30:59.486Z,22.63
2018-06-19T19:33:28.511Z,22.60
2018-06-19T19:35:57.112Z,22.60
2018-06-19T19:38:31.465Z,22.52
2018-06-19T19:41:00.491Z,22.49
2018-06-19T19:43:29.588Z,22.33
2018-06-19T19:45:58.834Z,22.31
2018-06-19T19:48:32.915Z,22.30
2018-06-19T19:51:01.962Z,22.28
2018-06-19T19:53:31.206Z,22.27
2018-06-19T19:56:04.889Z,22.23
2018-06-19T19:58:38.696Z,22.17
2018-06-19T20:01:07.473Z,22.25
2018-06-19T20:03:36.186Z,22.18
2018-06-19T20:06:05.342Z,22.18
2018-06-19T20:08:34.106Z,22.13
2018-06-19T20:11:03.562Z,22.11
2018-06-19T20:13:32.546Z,22.01
2018-06-19T20:16:01.271Z,21.86
2018-06-19T20:18:30.289Z,21.89
2018-06-19T20:20:59.017Z,21.89
2018-06-19T20:23:27.633Z,21.87
2018-06-19T20:25:56.496Z,21.91
2018-06-19T20:28:26.145Z,21.92
2018-06-19T20:30:54.829Z,21.95
2018-06-19T20:33:23.551Z,21.95
2018-06-19T20:35:52.289Z,21.91
2018-06-19T20:38:21.059Z,21.86
2018-06-19T20:40:49.709Z,21.86
2018-06-19T20:43:18.396Z,21.88
2018-06-19T20:45:47.359Z,21.91
2018-06-19T20:48:16.322Z,21.93
2018-06-19T20:50:45.035Z,21.96
2018-06-19T20:53:13.687Z,21.93
2018-06-19T20:55:42.579Z,21.95
2018-06-19T20:58:11.235Z,21.94
2018-06-19T21:00:40.266Z,21.92
2018-06-19T21:03:09.817Z,21.91
2018-06-19T21:05:38.824Z,21.91
2018-06-19T21:08:08.808Z,21.93
2018-06-19T21:10:37.841Z,21.90
2018-06-19T21:13:06.553Z,21.87
2018-06-19T21:15:35.498Z,21.79
2018-06-19T21:18:04.153Z,21.78
2018-06-19T21:20:32.980Z,21.75
2018-06-19T21:23:01.636Z,21.73
2018-06-19T21:25:30.581Z,21.69
2018-06-19T21:27:59.538Z,21.65
2018-06-19T21:30:28.125Z,21.66
2018-06-19T21:32:57.751Z,21.66
2018-06-19T21:35:26.369Z,21.66
2018-06-19T21:37:55.074Z,21.67
2018-06-19T21:40:24.324Z,21.66
2018-06-19T21:42:52.939Z,21.62
2018-06-19T21:45:21.606Z,21.59
2018-06-19T21:47:50.232Z,21.57
2018-06-19T21:50:18.834Z,21.55
2018-06-19T21:52:47.837Z,21.52
2018-06-19T21:55:16.421Z,21.48
2018-06-19T21:57:45.041Z,21.47
2018-06-19T22:00:14.036Z,21.41
2018-06-19T22:02:43.416Z,21.40
2018-06-19T22:05:12.010Z,21.40
2018-06-19T22:07:40.602Z,21.41
2018-06-19T22:10:09.543Z,21.40
2018-06-19T22:12:38.397Z,21.38
2018-06-19T22:15:07.012Z,21.36
2018-06-19T22:17:35.898Z,21.35
2018-06-19T22:20:04.560Z,21.35
2018-06-19T22:22:34.268Z,21.34
2018-06-19T22:25:03.125Z,21.29
2018-06-19T22:27:31.745Z,21.22
2018-06-19T22:30:00.595Z,21.18
2018-06-19T22:32:29.173Z,21.19
2018-06-19T22:34:58.000Z,21.21
2018-06-19T22:37:27.748Z,21.21
2018-06-19T22:39:56.695Z,21.22
2018-06-19T22:42:25.306Z,21.21
2018-06-19T22:44:53.936Z,21.22
2018-06-19T22:47:24.334Z,21.15
2018-06-19T22:49:53.553Z,21.03
2018-06-19T22:52:23.704Z,20.93
2018-06-19T22:54:54.567Z,20.85
2018-06-19T22:57:23.464Z,20.83
2018-06-19T22:59:52.879Z,20.85
2018-06-19T23:02:22.401Z,20.87
2018-06-19T23:04:52.374Z,20.91
2018-06-19T23:07:22.786Z,20.91
2018-06-19T23:09:52.811Z,20.91
2018-06-19T23:12:21.720Z,20.93
2018-06-19T23:14:50.305Z,20.95
2018-06-19T23:17:19.504Z,20.96
2018-06-19T23:19:48.092Z,20.96
2018-06-19T23:22:16.691Z,20.99
2018-06-19T23:24:45.601Z,21.03
2018-06-19T23:27:14.861Z,21.05
2018-06-19T23:29:43.480Z,21.03
2018-06-19T23:32:12.464Z,21.02
2018-06-19T23:34:41.086Z,20.99
2018-06-19T23:37:10.047Z,20.98
2018-06-19T23:39:38.680Z,20.93
2018-06-19T23:42:07.362Z,20.92
2018-06-19T23:44:35.966Z,20.85
2018-06-19T23:47:04.605Z,20.83
2018-06-19T23:49:33.315Z,20.80
2018-06-19T23:52:01.913Z,20.80
2018-06-19T23:54:30.801Z,20.80
2018-06-19T23:56:59.396Z,20.81
2018-06-19T23:59:28.644Z,20.76
